Time;durP1;ratioP1;P1;durP2;ratioP2;P2;SDS_P1;SDS_P2;PMS_P1;PMS_P2;Temp;Humidity;BMP_temperature;BMP_pressure;BME280_temperature;BME280_humidity;BME280_pressure;Samples;Min_cycle;Max_cycle;Signal;HPM_P1;HPM_P2
2022/05/22 00:01:12;;;;;;;;;;;;;;;24.13;15.67;100350.81;5034968;28;19917;-70
2022/05/22 00:03:38;;;;;;;;;;;;;;;24.11;15.65;100338.53;5034398;28;20012;-70
2022/05/22 00:06:03;;;;;;;;;;;;;;;24.11;15.76;100344.84;5034746;28;19957;-70
2022/05/22 00:08:28;;;;;;;;;;;;;;;24.12;15.76;100349.19;5034506;28;20268;-70
2022/05/22 00:10:53;;;;;;;;;;;;;;;24.11;15.74;100357.63;5034649;28;19936;-70
2022/05/22 00:13:19;;;;;;;;;;;;;;;24.10;15.73;100351.38;5034504;28;20324;-70
2022/05/22 00:16:36;;;;;;;;;;;;;;;24.11;15.87;100353.03;5034640;28;19967;-70
2022/05/22 00:18:29;;;;;;;;;;;;;;;24.11;15.76;100358.47;5034216;28;19967;-70
2022/05/22 00:20:54;;;;;;;;;;;;;;;24.10;15.71;100351.38;5035034;28;19917;-70
2022/05/22 00:23:20;;;;;;;;;;;;;;;24.12;15.52;100348.38;5034412;28;20352;-70
2022/05/22 00:25:45;;;;;;;;;;;;;;;24.12;15.69;100356.56;5034737;28;19963;-70
2022/05/22 00:28:10;;;;;;;;;;;;;;;24.12;15.79;100354.63;5034190;28;19921;-70
2022/05/22 00:30:35;;;;;;;;;;;;;;;24.11;15.70;100358.47;5034921;28;19917;-70
2022/05/22 00:33:02;;;;;;;;;;;;;;;24.10;15.68;100353.28;5034619;28;20248;-70
2022/05/22 00:35:27;;;;;;;;;;;;;;;24.09;15.93;100360.66;5035318;28;20375;-70
2022/05/22 00:37:53;;;;;;;;;;;;;;;24.10;15.72;100356.84;5035750;28;19917;-70
2022/05/22 00:40:18;;;;;;;;;;;;;;;24.10;15.67;100361.50;5018943;28;20450;-70
2022/05/22 00:42:46;;;;;;;;;;;;;;;24.10;15.73;100356.84;5016536;28;19914;-70
2022/05/22 00:45:11;;;;;;;;;;;;;;;24.09;15.79;100351.66;5016472;28;19926;-71
2022/05/22 00:47:36;;;;;;;;;;;;;;;24.09;15.66;100355.19;5013056;28;19924;-70
2022/05/22 00:50:03;;;;;;;;;;;;;;;24.09;15.74;100357.09;5013994;28;20014;-70
2022/05/22 00:52:54;;;;;;;;;;;;;;;24.09;15.64;100365.31;5013889;28;19949;-70
2022/05/22 00:55:24;;;;;;;;;;;;;;;24.08;15.61;100364.50;5010858;28;19971;-70
2022/05/22 00:57:50;;;;;;;;;;;;;;;24.10;15.67;100369.69;5013769;28;19921;-70
2022/05/22 01:00:16;;;;;;;;;;;;;;;24.08;15.72;100375.41;5014088;28;19924;-70
2022/05/22 01:05:26;;;;;;;;;;;;;;;24.09;15.54;100376.22;5014501;28;19924;-70
2022/05/22 01:07:51;;;;;;;;;;;;;;;24.07;15.73;100371.03;5014048;28;19917;-70
2022/05/22 01:10:16;;;;;;;;;;;;;;;24.08;15.90;100369.94;5013730;28;19922;-70
2022/05/22 01:12:42;;;;;;;;;;;;;;;24.09;15.60;100365.31;5013628;28;19917;-70
2022/05/22 01:15:08;;;;;;;;;;;;;;;24.08;15.77;100375.41;4996601;28;19957;-70
2022/05/22 01:17:40;;;;;;;;;;;;;;;24.09;15.86;100376.22;5014051;28;20008;-70
2022/05/22 01:20:05;;;;;;;;;;;;;;;24.08;15.78;100386.34;5013909;28;19918;-70
2022/05/22 01:22:30;;;;;;;;;;;;;;;24.08;15.83;100383.59;5013597;28;20328;-70
2022/05/22 01:24:56;;;;;;;;;;;;;;;24.09;15.77;100387.94;5013896;28;19918;-70
2022/05/22 01:27:21;;;;;;;;;;;;;;;24.07;15.86;100384.69;5013563;28;20232;-70
2022/05/22 01:29:46;;;;;;;;;;;;;;;24.07;16.03;100384.69;4995968;28;19922;-70
2022/05/22 01:32:12;;;;;;;;;;;;;;;24.06;16.12;100383.06;5013777;28;19921;-70
2022/05/22 01:34:37;;;;;;;;;;;;;;;24.06;15.77;100383.06;5013877;28;20371;-71
2022/05/22 01:37:02;;;;;;;;;;;;;;;24.07;15.73;100390.16;5013679;28;20253;-70
2022/05/22 01:39:28;;;;;;;;;;;;;;;24.07;15.75;100394.78;5020716;28;19927;-70
2022/05/22 01:41:53;;;;;;;;;;;;;;;24.07;15.87;100394.78;5033549;28;19971;-70
2022/05/22 01:44:18;;;;;;;;;;;;;;;24.08;15.72;100401.91;5033683;28;19925;-70
2022/05/22 01:46:43;;;;;;;;;;;;;;;24.06;15.85;100398.59;5033654;28;20360;-70
2022/05/22 01:49:09;;;;;;;;;;;;;;;24.06;15.72;100404.91;5033146;28;20019;-70
2022/05/22 01:51:35;;;;;;;;;;;;;;;24.07;15.68;100401.06;5033297;28;19924;-70
2022/05/22 01:54:01;;;;;;;;;;;;;;;24.07;15.71;100394.78;5033138;28;19924;-70
2022/05/22 01:56:28;;;;;;;;;;;;;;;24.07;15.94;100408.44;5033330;28;19928;-70
2022/05/22 01:58:53;;;;;;;;;;;;;;;24.06;15.78;100407.63;5035029;28;19928;-70
2022/05/22 02:01:18;;;;;;;;;;;;;;;24.06;15.63;100402.19;5036978;28;19921;-70
2022/05/22 02:03:43;;;;;;;;;;;;;;;24.07;15.54;100411.97;5036989;28;20364;-70
2022/05/22 02:06:08;;;;;;;;;;;;;;;24.06;15.47;100413.09;5036579;28;19940;-70
2022/05/22 02:08:34;;;;;;;;;;;;;;;24.05;15.79;100408.72;5036822;28;20019;-70
2022/05/22 02:11:00;;;;;;;;;;;;;;;24.05;15.55;100416.91;5036851;28;20360;-70
2022/05/22 02:13:26;;;;;;;;;;;;;;;24.06;15.79;100418.56;5036479;28;19924;-70
2022/05/22 02:15:52;;;;;;;;;;;;;;;24.06;15.55;100415.00;5036847;28;19983;-70
2022/05/22 02:18:17;;;;;;;;;;;;;;;24.07;15.61;100422.09;5036699;28;20319;-70
2022/05/22 02:20:43;;;;;;;;;;;;;;;24.06;15.63;100418.56;5036319;28;19917;-70
2022/05/22 02:23:08;;;;;;;;;;;;;;;24.06;15.85;100417.72;5036588;28;19925;-70
2022/05/22 02:25:34;;;;;;;;;;;;;;;24.05;15.65;100429.75;5036611;28;20364;-70
2022/05/22 02:27:59;;;;;;;;;;;;;;;24.04;16.00;100423.44;5036915;28;19968;-70
2022/05/22 02:30:26;;;;;;;;;;;;;;;24.05;15.92;100427.03;5035843;28;19925;-70
2022/05/22 02:32:51;;;;;;;;;;;;;;;24.05;15.68;100430.56;5036015;28;19917;-70
2022/05/22 02:35:16;;;;;;;;;;;;;;;24.05;15.70;100427.81;5036462;28;19924;-70
2022/05/22 02:37:42;;;;;;;;;;;;;;;24.05;15.65;100436.03;5018809;28;19917;-70
2022/05/22 02:40:09;;;;;;;;;;;;;;;24.05;15.70;100432.47;5025429;28;19918;-70
2022/05/22 02:42:35;;;;;;;;;;;;;;;24.05;15.84;100430.56;5016562;28;19917;-70
2022/05/22 02:45:00;;;;;;;;;;;;;;;24.05;15.77;100427.81;5016696;28;20365;-70
2022/05/22 02:47:26;;;;;;;;;;;;;;;24.05;15.74;100424.28;5016370;28;19918;-70
2022/05/22 02:49:51;;;;;;;;;;;;;;;24.05;15.84;100427.03;5016571;28;19918;-70
2022/05/22 02:52:16;;;;;;;;;;;;;;;24.04;15.78;100426.19;5016268;28;19924;-70
2022/05/22 02:54:41;;;;;;;;;;;;;;;24.04;15.75;100428.91;4998626;28;19921;-70
2022/05/22 02:57:07;;;;;;;;;;;;;;;24.03;15.89;100421.84;5015910;28;19917;-70
2022/05/22 02:59:33;;;;;;;;;;;;;;;24.04;15.91;100428.91;5016148;28;19964;-70
2022/05/22 03:01:59;;;;;;;;;;;;;;;24.03;16.14;100427.28;5016070;28;19928;-70
2022/05/22 03:04:24;;;;;;;;;;;;;;;24.03;15.89;100438.22;5016662;28;20408;-70
2022/05/22 03:06:49;;;;;;;;;;;;;;;24.04;15.95;100437.09;5016029;28;19992;-70
2022/05/22 03:09:15;;;;;;;;;;;;;;;24.03;16.18;100440.94;5015631;28;20372;-70
2022/05/22 03:11:41;;;;;;;;;;;;;;;24.03;16.06;100438.22;5015657;28;19979;-70
2022/05/22 03:14:06;;;;;;;;;;;;;;;24.04;16.00;100445.28;5015682;28;19917;-70
2022/05/22 03:16:31;;;;;;;;;;;;;;;24.05;15.99;100443.41;5016002;28;20004;-70
2022/05/22 03:18:56;;;;;;;;;;;;;;;24.04;16.13;100445.28;5015909;28;19917;-70
2022/05/22 03:21:22;;;;;;;;;;;;;;;24.03;16.02;100443.66;5015780;28;20403;-71
2022/05/22 03:23:47;;;;;;;;;;;;;;;24.05;16.31;100449.66;5015488;28;19917;-70
2022/05/22 03:26:12;;;;;;;;;;;;;;;24.03;16.34;100451.88;5015727;28;19994;-70
2022/05/22 03:28:38;;;;;;;;;;;;;;;24.05;16.52;100449.66;5015294;28;20381;-70
2022/05/22 03:31:03;;;;;;;;;;;;;;;24.05;16.20;100457.03;5015465;28;19917;-70
2022/05/22 03:33:28;;;;;;;;;;;;;;;24.05;16.34;100451.59;5015526;28;19928;-71
2022/05/22 03:35:54;;;;;;;;;;;;;;;24.07;16.29;100455.66;5015520;28;19924;-71
2022/05/22 03:38:19;;;;;;;;;;;;;;;24.07;16.45;100452.94;5015421;28;20004;-70
2022/05/22 03:40:45;;;;;;;;;;;;;;;24.06;16.44;100454.03;5029359;28;20256;-70
2022/05/22 03:43:11;;;;;;;;;;;;;;;24.07;16.36;100463.03;5017559;28;20002;-70
2022/05/22 03:45:36;;;;;;;;;;;;;;;24.07;16.13;100454.84;5035375;28;19968;-70
2022/05/22 03:48:01;;;;;;;;;;;;;;;24.06;16.07;100459.50;5034629;28;19917;-69
2022/05/22 03:50:27;;;;;;;;;;;;;;;24.06;16.25;100464.97;5035136;28;20051;-70
2022/05/22 03:52:52;;;;;;;;;;;;;;;24.05;16.14;100459.78;5034940;28;20348;-70
2022/05/22 03:55:17;;;;;;;;;;;;;;;24.03;16.06;100460.06;5035352;28;19921;-70
2022/05/22 03:57:46;;;;;;;;;;;;;;;24.04;16.12;100461.66;5035088;28;20352;-69
2022/05/22 04:00:12;;;;;;;;;;;;;;;24.04;15.88;100460.84;5017274;28;19917;-69
2022/05/22 04:02:37;;;;;;;;;;;;;;;24.04;16.15;100461.66;5034581;28;20391;-69
2022/05/22 04:05:03;;;;;;;;;;;;;;;24.04;16.02;100461.66;5036360;28;19932;-70
2022/05/22 04:07:28;;;;;;;;;;;;;;;24.04;16.05;100453.47;5034766;28;20378;-70
2022/05/22 04:09:53;;;;;;;;;;;;;;;24.03;15.97;100470.97;5039498;28;19917;-70
2022/05/22 04:12:18;;;;;;;;;;;;;;;24.03;15.65;100465.50;5017749;28;20268;-70
2022/05/22 04:14:44;;;;;;;;;;;;;;;24.03;15.64;100467.44;5052363;28;19936;-70
2022/05/22 04:17:09;;;;;;;;;;;;;;;24.03;15.80;100470.16;5055819;28;19929;-70
2022/05/22 04:19:36;;;;;;;;;;;;;;;24.03;15.58;100470.97;5056826;28;19940;-70
2022/05/22 04:22:02;;;;;;;;;;;;;;;24.03;15.66;100472.88;5056115;28;19921;-70
2022/05/22 04:27:11;;;;;;;;;;;;;;;24.03;15.32;100470.16;5054832;28;19923;-70
2022/05/22 04:29:38;;;;;;;;;;;;;;;24.02;15.40;100473.97;5037196;28;19921;-70
2022/05/22 04:32:03;;;;;;;;;;;;;;;24.02;15.23;100466.59;5016652;28;19952;-70
2022/05/22 04:34:28;;;;;;;;;;;;;;;24.02;15.45;100469.31;5033870;28;19922;-70
2022/05/22 04:36:54;;;;;;;;;;;;;;;24.02;15.21;100472.06;5034145;28;19937;-70
2022/05/22 04:39:19;;;;;;;;;;;;;;;24.04;15.14;100471.78;5033365;28;20275;-70
2022/05/22 04:41:44;;;;;;;;;;;;;;;24.04;15.08;100472.59;5014444;28;19944;-70
2022/05/22 04:44:10;;;;;;;;;;;;;;;24.04;14.72;100472.59;5014385;28;19943;-70
2022/05/22 04:46:35;;;;;;;;;;;;;;;24.04;14.80;100483.50;5014073;28;20288;-70
2022/05/22 04:49:00;;;;;;;;;;;;;;;24.04;14.67;100477.25;4996617;28;19921;-70
2022/05/22 04:51:25;;;;;;;;;;;;;;;24.04;14.71;100483.50;5014226;28;20360;-70
2022/05/22 04:53:51;;;;;;;;;;;;;;;24.05;14.56;100476.97;4996651;28;20056;-70
2022/05/22 04:56:16;;;;;;;;;;;;;;;24.06;14.49;100475.88;5014224;28;20273;-70
2022/05/22 04:58:41;;;;;;;;;;;;;;;24.06;14.43;100475.03;5013947;28;20387;-70
2022/05/22 05:01:07;;;;;;;;;;;;;;;24.09;14.49;100479.97;5013900;28;19917;-70
2022/05/22 05:03:33;;;;;;;;;;;;;;;24.11;14.44;100481.34;5014103;28;19964;-70
2022/05/22 05:05:58;;;;;;;;;;;;;;;24.12;14.39;100480.22;5014253;28;20273;-70
2022/05/22 05:08:24;;;;;;;;;;;;;;;24.10;14.20;100476.97;5014008;28;20276;-70
2022/05/22 05:10:51;;;;;;;;;;;;;;;24.12;14.24;100474.75;5013710;28;20343;-70
2022/05/22 05:13:16;;;;;;;;;;;;;;;24.17;14.25;100480.22;5014011;28;19924;-70
2022/05/22 05:15:41;;;;;;;;;;;;;;;24.17;14.06;100474.75;5014031;28;19917;-70
2022/05/22 05:18:07;;;;;;;;;;;;;;;24.15;13.92;100482.41;5013656;28;19917;-70
2022/05/22 05:20:32;;;;;;;;;;;;;;;24.17;14.01;100476.69;5013666;28;19922;-70
2022/05/22 05:22:57;;;;;;;;;;;;;;;24.20;13.94;100484.31;5013575;28;19971;-70
2022/05/22 05:25:22;;;;;;;;;;;;;;;24.17;13.91;100476.69;5013657;28;20284;-70
2022/05/22 05:27:48;;;;;;;;;;;;;;;24.13;13.81;100475.59;5013792;28;19921;-70
2022/05/22 05:30:13;;;;;;;;;;;;;;;24.10;14.00;100487.88;5013375;28;19921;-70
2022/05/22 05:32:38;;;;;;;;;;;;;;;24.10;13.83;100493.34;5013712;28;20020;-70
2022/05/22 05:35:06;;;;;;;;;;;;;;;24.09;13.88;100491.69;5017714;28;19917;-70
2022/05/22 05:37:32;;;;;;;;;;;;;;;24.06;13.76;100492.25;5018024;28;19918;-70
2022/05/22 05:39:57;;;;;;;;;;;;;;;24.07;13.97;100488.41;5021423;28;19924;-70
2022/05/22 05:42:23;;;;;;;;;;;;;;;24.05;14.00;100493.34;5037315;28;19917;-70
2022/05/22 05:44:48;;;;;;;;;;;;;;;24.06;14.10;100492.25;5037681;28;19928;-70
2022/05/22 05:47:13;;;;;;;;;;;;;;;24.07;13.93;100493.88;5037344;28;19971;-70
2022/05/22 05:49:39;;;;;;;;;;;;;;;24.07;13.87;100493.06;5037376;28;20387;-70
2022/05/22 05:52:04;;;;;;;;;;;;;;;24.07;13.76;100501.25;5037204;28;19917;-70
2022/05/22 05:54:29;;;;;;;;;;;;;;;24.07;13.86;100502.06;5037141;28;19917;-70
2022/05/22 05:56:55;;;;;;;;;;;;;;;24.08;13.89;100500.19;5036951;28;20367;-70
2022/05/22 05:59:20;;;;;;;;;;;;;;;24.06;13.97;100495.00;5036974;28;20433;-70
2022/05/22 06:01:45;;;;;;;;;;;;;;;24.07;13.72;100496.63;5036716;28;20490;-70
2022/05/22 06:04:11;;;;;;;;;;;;;;;24.09;14.05;100502.59;5037472;28;19918;-70
2022/05/22 06:06:36;;;;;;;;;;;;;;;24.11;13.85;100496.88;5036651;28;20445;-70
2022/05/22 06:09:01;;;;;;;;;;;;;;;24.11;13.94;100499.59;5036788;28;19918;-70
2022/05/22 06:11:26;;;;;;;;;;;;;;;24.11;14.01;100500.44;5036888;28;20414;-70
2022/05/22 06:13:52;;;;;;;;;;;;;;;24.12;13.80;100496.59;5036804;28;19917;-70
2022/05/22 06:16:17;;;;;;;;;;;;;;;24.14;13.74;100501.78;5036742;28;20284;-70
2022/05/22 06:18:43;;;;;;;;;;;;;;;24.12;14.00;100496.59;5036721;28;19924;-70
2022/05/22 06:21:12;;;;;;;;;;;;;;;24.13;13.86;100495.53;5036613;28;19921;-70
2022/05/22 06:23:38;;;;;;;;;;;;;;;24.16;13.54;100492.25;5036302;28;20295;-70
2022/05/22 06:26:04;;;;;;;;;;;;;;;24.17;13.75;100499.31;5036567;28;20012;-70
2022/05/22 06:28:29;;;;;;;;;;;;;;;24.19;13.86;100493.59;5036305;28;19984;-70
2022/05/22 06:30:55;;;;;;;;;;;;;;;24.20;13.66;100492.50;5036453;28;20352;-70
2022/05/22 06:33:20;;;;;;;;;;;;;;;24.19;13.74;100494.41;5036465;28;19917;-70
2022/05/22 06:35:46;;;;;;;;;;;;;;;24.22;13.92;100489.50;5036382;28;20283;-70
2022/05/22 06:39:49;;;;;;;;;;;;;;;24.22;13.71;100492.25;5036032;28;20327;-71
2022/05/22 06:40:56;;;;;;;;;;;;;;;24.23;13.69;100494.66;5025389;28;20404;-71
2022/05/22 06:43:22;;;;;;;;;;;;;;;24.24;14.02;100488.13;5016515;28;19925;-70
2022/05/22 06:45:50;;;;;;;;;;;;;;;24.25;13.63;100483.47;4999060;28;19949;-70
2022/05/22 06:48:16;;;;;;;;;;;;;;;24.27;13.86;100486.78;5015986;28;20024;-70
2022/05/22 06:50:41;;;;;;;;;;;;;;;24.26;13.72;100496.84;5016097;28;19925;-70
2022/05/22 06:53:07;;;;;;;;;;;;;;;24.27;13.75;100487.56;5016044;28;20004;-70
2022/05/22 06:55:32;;;;;;;;;;;;;;;24.26;13.53;100485.13;5016295;28;19918;-70
2022/05/22 06:57:57;;;;;;;;;;;;;;;24.26;13.75;100479.66;5015887;28;20292;-70
2022/05/22 07:00:22;;;;;;;;;;;;;;;24.27;13.73;100481.31;5016213;28;19917;-70
2022/05/22 07:02:48;;;;;;;;;;;;;;;24.29;13.47;100484.56;5016152;28;20012;-70
2022/05/22 07:05:13;;;;;;;;;;;;;;;24.32;13.61;100486.75;5015785;28;19960;-70
2022/05/22 07:07:38;;;;;;;;;;;;;;;24.32;13.55;100484.03;5015838;28;19925;-70
2022/05/22 07:10:04;;;;;;;;;;;;;;;24.31;13.45;100485.09;5015960;28;19921;-70
2022/05/22 07:12:29;;;;;;;;;;;;;;;24.34;13.43;100490.03;5015617;28;19917;-70
2022/05/22 07:14:55;;;;;;;;;;;;;;;24.32;13.55;100489.47;5015568;28;19917;-71
2022/05/22 07:17:23;;;;;;;;;;;;;;;24.35;13.63;100486.19;5015903;28;19924;-71
2022/05/22 07:19:49;;;;;;;;;;;;;;;24.34;13.64;100482.63;5015479;28;19932;-70
2022/05/22 07:22:14;;;;;;;;;;;;;;;24.34;13.75;100476.38;5015419;28;19917;-70
2022/05/22 07:24:39;;;;;;;;;;;;;;;24.33;13.75;100474.72;5015644;28;19933;-70
2022/05/22 07:27:05;;;;;;;;;;;;;;;24.35;13.75;100470.63;5015584;28;20008;-70
2022/05/22 07:29:30;;;;;;;;;;;;;;;24.35;13.59;100475.25;5015235;28;19929;-70
2022/05/22 07:31:56;;;;;;;;;;;;;;;24.36;13.54;100474.16;5015571;28;19918;-70
2022/05/22 07:34:24;;;;;;;;;;;;;;;24.37;13.74;100473.09;5015527;28;19918;-70
2022/05/22 07:36:52;;;;;;;;;;;;;;;24.35;13.46;100472.53;5015254;28;19917;-70
2022/05/22 07:39:18;;;;;;;;;;;;;;;24.36;13.72;100469.50;5015850;28;20312;-70
2022/05/22 07:41:43;;;;;;;;;;;;;;;24.38;13.77;100472.78;5015105;28;19963;-70
2022/05/22 07:44:08;;;;;;;;;;;;;;;24.38;13.78;100469.25;5015329;28;19968;-70
2022/05/22 07:46:34;;;;;;;;;;;;;;;24.38;13.80;100467.31;5015159;28;20323;-70
2022/05/22 07:48:59;;;;;;;;;;;;;;;24.42;13.44;100473.03;5015190;28;19984;-70
2022/05/22 07:51:24;;;;;;;;;;;;;;;24.41;13.44;100465.97;5015169;28;20315;-70
2022/05/22 07:53:50;;;;;;;;;;;;;;;24.40;13.51;100464.31;5014877;28;20296;-70
2022/05/22 07:56:16;;;;;;;;;;;;;;;24.42;13.53;100472.22;5014351;28;19925;-70
2022/05/22 07:58:41;;;;;;;;;;;;;;;24.42;13.47;100470.31;5015053;28;19925;-70
2022/05/22 08:01:07;;;;;;;;;;;;;;;24.42;13.55;100467.56;5015546;28;20245;-70
2022/05/22 08:03:32;;;;;;;;;;;;;;;24.43;13.40;100460.22;5015011;28;19918;-70
2022/05/22 08:05:57;;;;;;;;;;;;;;;24.43;13.31;100463.75;5014612;28;19918;-70
2022/05/22 08:08:23;;;;;;;;;;;;;;;24.44;13.27;100470.88;5014483;28;19924;-70
2022/05/22 08:10:48;;;;;;;;;;;;;;;24.45;13.53;100464.28;5014906;28;19936;-70
2022/05/22 08:13:13;;;;;;;;;;;;;;;24.47;13.54;100464.03;5014580;28;20432;-70
2022/05/22 08:15:39;;;;;;;;;;;;;;;24.47;13.23;100455.81;5014670;28;19921;-70
2022/05/22 08:18:04;;;;;;;;;;;;;;;24.47;13.40;100455.81;5014942;28;19917;-70
2022/05/22 08:20:30;;;;;;;;;;;;;;;24.48;13.49;100461.00;5015083;28;20352;-70
2022/05/22 08:22:58;;;;;;;;;;;;;;;24.49;13.24;100450.91;5015387;28;19922;-70
2022/05/22 08:25:24;;;;;;;;;;;;;;;24.51;13.52;100446.81;5015940;28;19979;-70
2022/05/22 08:27:50;;;;;;;;;;;;;;;24.52;13.49;100445.69;5014354;28;20427;-70
2022/05/22 08:30:16;;;;;;;;;;;;;;;24.52;13.26;100445.69;5013928;28;19921;-70
2022/05/22 08:32:42;;;;;;;;;;;;;;;24.54;13.52;100453.63;5014271;28;20296;-69
2022/05/22 08:35:07;;;;;;;;;;;;;;;24.57;13.45;100457.75;5014456;28;19956;-69
2022/05/22 08:37:34;;;;;;;;;;;;;;;24.55;13.44;100458.81;5014158;28;20261;-69
2022/05/22 08:39:59;;;;;;;;;;;;;;;24.57;13.09;100449.53;5014081;28;19928;-69
2022/05/22 08:42:25;;;;;;;;;;;;;;;24.58;13.41;100445.69;5033615;28;19917;-69
2022/05/22 08:44:51;;;;;;;;;;;;;;;24.59;13.21;100441.88;5016320;28;19979;-71
2022/05/22 08:47:25;;;;;;;;;;;;;;;24.60;13.42;100446.25;5016383;28;19917;-70
2022/05/22 08:49:50;;;;;;;;;;;;;;;24.60;13.09;100441.59;5016452;28;19971;-70
2022/05/22 08:52:17;;;;;;;;;;;;;;;24.61;13.20;100443.25;5033660;28;19917;-70
2022/05/22 08:54:43;;;;;;;;;;;;;;;24.64;13.36;100430.94;5033872;28;19917;-70
2022/05/22 08:59:55;;;;;;;;;;;;;;;24.63;13.37;100430.13;5018898;28;19971;-70
2022/05/22 09:02:21;;;;;;;;;;;;;;;24.67;13.44;100441.31;5033615;28;19917;-70
2022/05/22 09:04:49;;;;;;;;;;;;;;;24.69;13.36;100422.72;5033503;28;20398;-70
2022/05/22 09:07:14;;;;;;;;;;;;;;;24.71;13.42;100434.16;5015668;28;19940;-70
2022/05/22 09:09:40;;;;;;;;;;;;;;;24.70;13.07;100427.09;5033373;28;20347;-70
2022/05/22 09:12:15;;;;;;;;;;;;;;;24.72;12.99;100433.09;5033430;28;20051;-70
2022/05/22 09:14:41;;;;;;;;;;;;;;;24.72;13.04;100428.41;5033429;28;19917;-70
2022/05/22 09:17:23;;;;;;;;;;;;;;;24.73;13.22;100426.50;5033692;28;19918;-70
2022/05/22 09:19:58;;;;;;;;;;;;;;;24.76;13.15;100427.88;5033419;28;20360;-70
2022/05/22 09:22:24;;;;;;;;;;;;;;;24.76;12.90;100417.75;5033634;28;19917;-70
2022/05/22 09:25:09;;;;;;;;;;;;;;;24.74;12.92;100420.75;5033345;28;20359;-70
2022/05/22 09:27:34;;;;;;;;;;;;;;;24.76;13.17;100423.22;4991947;28;19925;-70
2022/05/22 09:30:32;;;;;;;;;;;;;;;24.79;13.15;100435.50;4991809;28;19921;-70
2022/05/22 09:33:03;;;;;;;;;;;;;;;24.79;12.96;100422.66;4934457;29;19919;-70
2022/05/22 09:35:49;;;;;;;;;;;;;;;24.79;13.23;100422.66;4934230;29;20029;-70
2022/05/22 09:38:33;;;;;;;;;;;;;;;24.80;13.20;100418.84;4933954;29;19926;-70
2022/05/22 09:41:16;;;;;;;;;;;;;;;24.82;13.04;100422.09;4927280;29;19923;-70
2022/05/22 09:43:48;;;;;;;;;;;;;;;24.82;13.07;100410.31;4914994;29;20017;-70
2022/05/22 09:46:32;;;;;;;;;;;;;;;24.83;13.20;100418.25;4915246;29;19919;-70
2022/05/22 09:49:10;;;;;;;;;;;;;;;24.81;12.96;100414.97;4914962;29;19919;-70
2022/05/22 09:51:35;;;;;;;;;;;;;;;24.83;12.91;100407.31;4899446;29;19919;-70
2022/05/22 09:54:19;;;;;;;;;;;;;;;24.83;13.24;100407.31;4915066;29;20394;-70
2022/05/22 09:56:47;;;;;;;;;;;;;;;24.85;13.25;100410.59;4915214;29;19942;-70
2022/05/22 09:59:21;;;;;;;;;;;;;;;24.85;12.87;100402.41;4915315;29;19957;-70
2022/05/22 10:01:48;;;;;;;;;;;;;;;24.86;13.03;100398.56;4915204;29;19919;-70
2022/05/22 10:04:22;;;;;;;;;;;;;;;24.85;13.02;100399.66;4905026;29;19919;-70
2022/05/22 10:07:03;;;;;;;;;;;;;;;24.85;12.85;100393.38;4934456;29;19958;-70
2022/05/22 10:09:32;;;;;;;;;;;;;;;24.86;13.08;100398.56;4986488;28;19937;-70
2022/05/22 10:12:07;;;;;;;;;;;;;;;24.88;12.89;100390.06;4994233;28;19940;-70
2022/05/22 10:14:47;;;;;;;;;;;;;;;24.86;12.91;100395.81;4976466;28;20014;-70
2022/05/22 10:17:13;;;;;;;;;;;;;;;24.90;12.98;100396.06;4994309;28;19934;-70
2022/05/22 10:20:13;;;;;;;;;;;;;;;24.88;13.06;100388.16;4996118;28;20040;-70
2022/05/22 10:22:39;;;;;;;;;;;;;;;24.90;12.83;100391.41;4937562;29;19929;-70
2022/05/22 10:25:22;;;;;;;;;;;;;;;24.89;13.12;100389.78;4937728;29;20405;-70
2022/05/22 10:28:02;;;;;;;;;;;;;;;24.91;12.76;100393.06;4937337;29;19923;-70
2022/05/22 10:30:48;;;;;;;;;;;;;;;24.90;13.09;100396.88;4937571;29;19923;-70
2022/05/22 10:33:13;;;;;;;;;;;;;;;24.91;13.00;100392.25;4937045;29;19941;-70
2022/05/22 10:35:40;;;;;;;;;;;;;;;24.92;12.99;100393.88;4937264;29;20395;-70
2022/05/22 10:38:22;;;;;;;;;;;;;;;24.91;13.01;100387.59;4937667;29;19919;-70
2022/05/22 10:43:36;;;;;;;;;;;;;;;24.90;13.23;100388.66;4956663;29;19966;-70
2022/05/22 10:46:01;;;;;;;;;;;;;;;24.92;12.95;100382.94;4956458;28;19927;-70
2022/05/22 10:48:28;;;;;;;;;;;;;;;24.93;12.89;100385.38;4956785;29;20385;-70
2022/05/22 10:50:56;;;;;;;;;;;;;;;24.92;12.83;100377.47;4956568;28;19946;-70
2022/05/22 10:53:39;;;;;;;;;;;;;;;24.93;12.95;100379.91;4956680;29;19981;-70
2022/05/22 10:56:14;;;;;;;;;;;;;;;24.92;12.90;100380.19;4967474;28;20012;-70
2022/05/22 10:58:58;;;;;;;;;;;;;;;24.93;12.90;100373.63;4996821;28;19944;-70
2022/05/22 11:01:34;;;;;;;;;;;;;;;24.92;13.07;100377.47;4999599;28;19917;-70
2022/05/22 11:04:09;;;;;;;;;;;;;;;24.91;13.01;100376.66;5025347;28;19942;-70
2022/05/22 11:06:36;;;;;;;;;;;;;;;24.93;13.13;100374.44;5001812;28;20026;-70
2022/05/22 11:09:01;;;;;;;;;;;;;;;24.93;13.26;100376.38;5006054;28;19921;-70
2022/05/22 11:11:33;;;;;;;;;;;;;;;24.94;12.94;100372.56;5002714;28;19925;-70
2022/05/22 11:14:09;;;;;;;;;;;;;;;24.96;12.89;100377.72;4996670;28;20048;-70
2022/05/22 11:16:34;;;;;;;;;;;;;;;24.92;13.10;100378.28;4996252;28;20020;-70
2022/05/22 11:19:06;;;;;;;;;;;;;;;24.95;13.26;100367.88;4996441;28;20012;-71
2022/05/22 11:21:36;;;;;;;;;;;;;;;24.93;12.95;100374.44;5011211;28;19918;-70
2022/05/22 11:24:04;;;;;;;;;;;;;;;24.95;13.00;100370.63;4995946;28;20344;-70
2022/05/22 11:26:42;;;;;;;;;;;;;;;24.92;12.93;100378.28;4995910;28;19925;-70
2022/05/22 11:29:20;;;;;;;;;;;;;;;24.93;13.25;100368.16;4995785;28;19922;-70
2022/05/22 11:31:59;;;;;;;;;;;;;;;24.93;13.09;100368.97;5010317;28;19925;-70
2022/05/22 11:34:43;;;;;;;;;;;;;;;24.92;12.81;100370.09;4995984;28;19918;-70
2022/05/22 11:37:27;;;;;;;;;;;;;;;24.92;12.93;100375.56;4995589;28;19922;-70
2022/05/22 11:39:52;;;;;;;;;;;;;;;24.89;12.98;100376.13;4995961;28;19924;-70
2022/05/22 11:42:20;;;;;;;;;;;;;;;24.91;13.02;100371.19;4995472;28;20387;-70
2022/05/22 11:45:04;;;;;;;;;;;;;;;24.93;13.13;100370.91;4995791;28;19981;-70
2022/05/22 11:47:32;;;;;;;;;;;;;;;24.89;13.23;100372.59;4995415;28;19929;-70
2022/05/22 11:50:16;;;;;;;;;;;;;;;24.86;13.02;100371.22;4995273;28;20311;-70
2022/05/22 11:52:56;;;;;;;;;;;;;;;24.87;12.94;100375.59;4995401;28;20014;-70
2022/05/22 11:55:22;;;;;;;;;;;;;;;24.87;13.07;100369.28;4995623;28;19924;-70
2022/05/22 11:58:07;;;;;;;;;;;;;;;24.86;13.04;100370.41;4995600;28;19918;-70
2022/05/22 12:00:32;;;;;;;;;;;;;;;24.85;13.02;100371.50;4995166;28;19924;-70
2022/05/22 12:03:10;;;;;;;;;;;;;;;24.84;13.10;100369.88;4995448;28;20004;-70
2022/05/22 12:05:38;;;;;;;;;;;;;;;24.83;12.92;100369.03;4977704;28;20348;-70
2022/05/22 12:08:20;;;;;;;;;;;;;;;24.82;13.01;100364.69;4995011;28;19918;-70
2022/05/22 12:10:46;;;;;;;;;;;;;;;24.81;13.03;100365.78;4977974;28;19922;-70
2022/05/22 12:13:29;;;;;;;;;;;;;;;24.80;13.09;100369.63;4977830;28;19918;-70
2022/05/22 12:15:57;;;;;;;;;;;;;;;24.80;13.16;100369.63;4995329;28;19918;-69
2022/05/22 12:18:25;;;;;;;;;;;;;;;24.79;12.88;100370.72;4995011;28;19924;-69
2022/05/22 12:20:56;;;;;;;;;;;;;;;24.78;13.16;100360.88;4995402;28;19918;-69
2022/05/22 12:23:24;;;;;;;;;;;;;;;24.79;13.00;100361.72;4997176;28;19918;-69
2022/05/22 12:25:51;;;;;;;;;;;;;;;24.77;12.83;100359.25;4996080;28;19928;-69
2022/05/22 12:28:36;;;;;;;;;;;;;;;24.77;13.23;100370.19;4979132;28;19937;-68
2022/05/22 12:31:03;;;;;;;;;;;;;;;24.77;13.12;100363.91;4995497;28;19980;-69
2022/05/22 12:33:30;;;;;;;;;;;;;;;24.76;13.00;100370.47;4995259;28;20483;-69
2022/05/22 12:35:56;;;;;;;;;;;;;;;24.74;13.17;100368.03;4995674;28;19980;-69
2022/05/22 12:38:21;;;;;;;;;;;;;;;24.74;13.08;100359.81;4977942;28;20364;-70
2022/05/22 12:40:58;;;;;;;;;;;;;;;24.75;13.23;100356.00;4994617;28;19924;-69
2022/05/22 12:43:23;;;;;;;;;;;;;;;24.73;13.16;100358.19;4994375;28;20391;-70
2022/05/22 12:45:52;;;;;;;;;;;;;;;24.73;13.28;100359.00;4976941;28;19925;-70
2022/05/22 12:48:24;;;;;;;;;;;;;;;24.72;13.10;100360.09;4994625;28;19922;-70
2022/05/22 12:50:51;;;;;;;;;;;;;;;24.72;13.14;100348.38;4994632;28;19921;-70